sensor_id;sensor_type;location;lat;lon;timestamp;pressure;altitude;pressure_sealevel;temperature;humidity
10539;BME280;5317;49.048;8.468;2022-08-19T00:01:19;112049.66;;;-142.21;72.81
10539;BME280;5317;49.048;8.468;2022-08-19T00:03:47;112049.66;;;-142.21;72.30
10539;BME280;5317;49.048;8.468;2022-08-19T00:06:15;112049.66;;;-142.21;72.68
10539;BME280;5317;49.048;8.468;2022-08-19T00:08:44;112049.66;;;-142.21;73.09
10539;BME280;5317;49.048;8.468;2022-08-19T00:11:12;112049.66;;;-142.21;72.90
10539;BME280;5317;49.048;8.468;2022-08-19T00:13:39;112049.66;;;-142.21;73.32
10539;BME280;5317;49.048;8.468;2022-08-19T00:16:07;112049.66;;;-142.21;73.90
10539;BME280;5317;49.048;8.468;2022-08-19T00:18:34;112049.66;;;-142.21;74.15
10539;BME280;5317;49.048;8.468;2022-08-19T00:21:02;112049.66;;;-142.21;74.37
10539;BME280;5317;49.048;8.468;2022-08-19T00:23:34;112049.66;;;-142.21;74.93
10539;BME280;5317;49.048;8.468;2022-08-19T00:26:04;112049.66;;;-142.21;75.21
10539;BME280;5317;49.048;8.468;2022-08-19T00:28:31;112049.66;;;-142.21;75.94
10539;BME280;5317;49.048;8.468;2022-08-19T00:31:00;112049.66;;;-142.21;75.76
10539;BME280;5317;49.048;8.468;2022-08-19T00:33:28;112049.66;;;-142.21;76.02
10539;BME280;5317;49.048;8.468;2022-08-19T00:35:58;112049.66;;;-142.21;76.35
10539;BME280;5317;49.048;8.468;2022-08-19T00:38:25;112049.66;;;-142.21;77.19
10539;BME280;5317;49.048;8.468;2022-08-19T00:40:52;112049.66;;;-142.21;77.48
10539;BME280;5317;49.048;8.468;2022-08-19T00:43:24;112049.66;;;-142.21;77.74
10539;BME280;5317;49.048;8.468;2022-08-19T00:45:52;112049.66;;;-142.21;78.18
10539;BME280;5317;49.048;8.468;2022-08-19T00:48:21;112049.66;;;-142.21;78.20
10539;BME280;5317;49.048;8.468;2022-08-19T00:50:50;112049.66;;;-142.21;78.75
10539;BME280;5317;49.048;8.468;2022-08-19T00:53:23;112049.66;;;-142.21;78.38
10539;BME280;5317;49.048;8.468;2022-08-19T00:55:55;112049.66;;;-142.21;78.64
10539;BME280;5317;49.048;8.468;2022-08-19T00:58:31;112049.66;;;-142.21;77.89
10539;BME280;5317;49.048;8.468;2022-08-19T01:01:01;112049.66;;;-142.21;77.54
10539;BME280;5317;49.048;8.468;2022-08-19T01:03:28;112049.66;;;-142.21;77.33
10539;BME280;5317;49.048;8.468;2022-08-19T01:05:56;112049.66;;;-142.21;77.10
10539;BME280;5317;49.048;8.468;2022-08-19T01:08:23;112049.66;;;-142.21;76.84
10539;BME280;5317;49.048;8.468;2022-08-19T01:10:55;112049.66;;;-142.21;77.15
10539;BME280;5317;49.048;8.468;2022-08-19T01:13:31;112049.66;;;-142.21;77.83
10539;BME280;5317;49.048;8.468;2022-08-19T01:16:03;112049.66;;;-142.21;78.13
10539;BME280;5317;49.048;8.468;2022-08-19T01:18:40;112049.66;;;-142.21;78.69
10539;BME280;5317;49.048;8.468;2022-08-19T01:21:13;112049.66;;;-142.21;78.32
10539;BME280;5317;49.048;8.468;2022-08-19T01:23:44;112049.66;;;-142.21;78.57
10539;BME280;5317;49.048;8.468;2022-08-19T01:26:14;112049.66;;;-142.21;79.41
10539;BME280;5317;49.048;8.468;2022-08-19T01:28:44;112049.66;;;-142.21;80.15
10539;BME280;5317;49.048;8.468;2022-08-19T01:31:16;112049.66;;;-142.21;80.62
10539;BME280;5317;49.048;8.468;2022-08-19T01:33:44;112049.66;;;-142.21;81.68
10539;BME280;5317;49.048;8.468;2022-08-19T01:36:23;112049.66;;;-142.21;82.33
10539;BME280;5317;49.048;8.468;2022-08-19T01:38:53;112049.66;;;-142.21;82.56
10539;BME280;5317;49.048;8.468;2022-08-19T01:41:20;112049.66;;;-142.21;82.44
10539;BME280;5317;49.048;8.468;2022-08-19T01:43:49;112049.66;;;-142.21;82.86
10539;BME280;5317;49.048;8.468;2022-08-19T01:46:18;112049.66;;;-142.21;83.42
10539;BME280;5317;49.048;8.468;2022-08-19T01:48:47;112049.66;;;-142.21;83.58
10539;BME280;5317;49.048;8.468;2022-08-19T01:51:15;112049.66;;;-142.21;85.67
10539;BME280;5317;49.048;8.468;2022-08-19T01:53:42;112049.66;;;-142.21;86.26
10539;BME280;5317;49.048;8.468;2022-08-19T01:56:10;112049.66;;;-142.21;86.69
10539;BME280;5317;49.048;8.468;2022-08-19T01:58:45;112049.66;;;-142.21;87.80
10539;BME280;5317;49.048;8.468;2022-08-19T02:01:18;112049.66;;;-142.21;88.70
10539;BME280;5317;49.048;8.468;2022-08-19T02:03:45;112049.66;;;-142.21;88.84
10539;BME280;5317;49.048;8.468;2022-08-19T02:06:13;112049.66;;;-142.21;88.67
10539;BME280;5317;49.048;8.468;2022-08-19T02:08:43;112049.66;;;-142.21;88.46
10539;BME280;5317;49.048;8.468;2022-08-19T02:11:22;112049.66;;;-142.21;88.33
10539;BME280;5317;49.048;8.468;2022-08-19T02:13:52;112049.66;;;-142.21;87.95
10539;BME280;5317;49.048;8.468;2022-08-19T02:16:20;112049.66;;;-142.21;87.79
10539;BME280;5317;49.048;8.468;2022-08-19T02:18:48;112049.66;;;-142.21;87.45
10539;BME280;5317;49.048;8.468;2022-08-19T02:24:48;112049.66;;;-142.21;87.87
10539;BME280;5317;49.048;8.468;2022-08-19T02:27:16;112049.66;;;-142.21;88.16
10539;BME280;5317;49.048;8.468;2022-08-19T02:29:45;112049.66;;;-142.21;88.28
10539;BME280;5317;49.048;8.468;2022-08-19T02:32:12;112049.66;;;-142.21;88.31
10539;BME280;5317;49.048;8.468;2022-08-19T02:34:39;112049.66;;;-142.21;88.56
10539;BME280;5317;49.048;8.468;2022-08-19T02:37:07;112049.66;;;-142.21;88.51
10539;BME280;5317;49.048;8.468;2022-08-19T02:39:55;112049.66;;;-142.21;88.35
10539;BME280;5317;49.048;8.468;2022-08-19T02:42:22;112049.66;;;-142.21;88.61
10539;BME280;5317;49.048;8.468;2022-08-19T02:44:50;112049.66;;;-142.21;89.10
10539;BME280;5317;49.048;8.468;2022-08-19T02:47:18;112049.66;;;-142.21;88.99
10539;BME280;5317;49.048;8.468;2022-08-19T02:49:45;112049.66;;;-142.21;89.13
10539;BME280;5317;49.048;8.468;2022-08-19T02:52:15;112049.66;;;-142.21;89.01
10539;BME280;5317;49.048;8.468;2022-08-19T02:54:43;112049.66;;;-142.21;89.76
10539;BME280;5317;49.048;8.468;2022-08-19T02:57:11;112049.66;;;-142.21;90.43
10539;BME280;5317;49.048;8.468;2022-08-19T02:59:41;112049.66;;;-142.21;90.73
10539;BME280;5317;49.048;8.468;2022-08-19T03:02:08;112049.66;;;-142.21;90.72
10539;BME280;5317;49.048;8.468;2022-08-19T03:04:35;112049.66;;;-142.21;91.09
10539;BME280;5317;49.048;8.468;2022-08-19T03:07:02;112049.66;;;-142.21;91.10
10539;BME280;5317;49.048;8.468;2022-08-19T03:09:30;112049.66;;;-142.21;91.16
10539;BME280;5317;49.048;8.468;2022-08-19T03:11:57;112049.66;;;-142.21;91.28
10539;BME280;5317;49.048;8.468;2022-08-19T03:14:24;112049.66;;;-142.21;91.17
10539;BME280;5317;49.048;8.468;2022-08-19T03:16:52;112049.66;;;-142.21;91.53
10539;BME280;5317;49.048;8.468;2022-08-19T03:19:20;112049.66;;;-142.21;92.04
10539;BME280;5317;49.048;8.468;2022-08-19T03:21:48;112049.66;;;-142.21;92.12
10539;BME280;5317;49.048;8.468;2022-08-19T03:24:17;112049.66;;;-142.21;92.16
10539;BME280;5317;49.048;8.468;2022-08-19T03:26:47;112049.66;;;-142.21;92.58
10539;BME280;5317;49.048;8.468;2022-08-19T03:29:16;112049.66;;;-142.21;92.54
10539;BME280;5317;49.048;8.468;2022-08-19T03:31:44;112049.66;;;-142.21;92.53
10539;BME280;5317;49.048;8.468;2022-08-19T03:34:17;112049.66;;;-142.21;92.88
10539;BME280;5317;49.048;8.468;2022-08-19T03:36:46;112049.66;;;-142.21;92.96
10539;BME280;5317;49.048;8.468;2022-08-19T03:39:15;112049.66;;;-142.21;92.93
10539;BME280;5317;49.048;8.468;2022-08-19T03:41:46;112049.66;;;-142.21;93.09
10539;BME280;5317;49.048;8.468;2022-08-19T03:44:18;112049.66;;;-142.21;93.76
10539;BME280;5317;49.048;8.468;2022-08-19T03:46:49;112049.66;;;-142.21;94.51
10539;BME280;5317;49.048;8.468;2022-08-19T03:49:19;112049.66;;;-142.21;95.29
10539;BME280;5317;49.048;8.468;2022-08-19T03:51:48;112049.66;;;-142.21;96.80
10539;BME280;5317;49.048;8.468;2022-08-19T03:54:19;112049.66;;;-142.21;96.49
10539;BME280;5317;49.048;8.468;2022-08-19T03:56:54;112049.66;;;-142.21;96.53
10539;BME280;5317;49.048;8.468;2022-08-19T03:59:28;112049.66;;;-142.21;97.29
10539;BME280;5317;49.048;8.468;2022-08-19T04:01:59;112049.66;;;-142.21;96.98
10539;BME280;5317;49.048;8.468;2022-08-19T04:04:29;112049.66;;;-142.21;96.74
10539;BME280;5317;49.048;8.468;2022-08-19T04:06:56;112049.66;;;-142.21;97.24
10539;BME280;5317;49.048;8.468;2022-08-19T04:09:24;112049.66;;;-142.21;97.58
10539;BME280;5317;49.048;8.468;2022-08-19T04:11:55;112049.66;;;-142.21;97.67
10539;BME280;5317;49.048;8.468;2022-08-19T04:14:27;112049.66;;;-142.21;98.11
10539;BME280;5317;49.048;8.468;2022-08-19T04:16:56;112049.66;;;-142.21;98.11
10539;BME280;5317;49.048;8.468;2022-08-19T04:19:24;112049.66;;;-142.21;97.89
10539;BME280;5317;49.048;8.468;2022-08-19T04:21:54;112049.66;;;-142.21;97.92
10539;BME280;5317;49.048;8.468;2022-08-19T04:24:22;112049.66;;;-142.21;97.40
10539;BME280;5317;49.048;8.468;2022-08-19T04:26:50;112049.66;;;-142.21;96.82
10539;BME280;5317;49.048;8.468;2022-08-19T04:29:21;112049.66;;;-142.21;96.42
10539;BME280;5317;49.048;8.468;2022-08-19T04:31:51;112049.66;;;-142.21;96.42
10539;BME280;5317;49.048;8.468;2022-08-19T04:34:24;112049.66;;;-142.21;96.32
10539;BME280;5317;49.048;8.468;2022-08-19T04:36:56;112049.66;;;-142.21;96.24
10539;BME280;5317;49.048;8.468;2022-08-19T04:39:27;112049.66;;;-142.21;96.15
10539;BME280;5317;49.048;8.468;2022-08-19T04:42:16;112049.66;;;-142.21;95.97
10539;BME280;5317;49.048;8.468;2022-08-19T04:45:02;112049.66;;;-142.21;95.85
10539;BME280;5317;49.048;8.468;2022-08-19T04:47:29;112049.66;;;-142.21;95.93
10539;BME280;5317;49.048;8.468;2022-08-19T04:49:58;112049.66;;;-142.21;95.93
10539;BME280;5317;49.048;8.468;2022-08-19T04:52:27;112049.66;;;-142.21;96.16
10539;BME280;5317;49.048;8.468;2022-08-19T04:54:57;112049.66;;;-142.21;95.79
10539;BME280;5317;49.048;8.468;2022-08-19T04:57:25;112049.66;;;-142.21;95.86
10539;BME280;5317;49.048;8.468;2022-08-19T04:59:54;112049.66;;;-142.21;95.43
10539;BME280;5317;49.048;8.468;2022-08-19T05:02:22;112049.66;;;-142.21;94.96
10539;BME280;5317;49.048;8.468;2022-08-19T05:04:55;112049.66;;;-142.21;95.07
10539;BME280;5317;49.048;8.468;2022-08-19T05:07:23;112049.66;;;-142.21;95.23
10539;BME280;5317;49.048;8.468;2022-08-19T05:09:52;112049.66;;;-142.21;95.57
10539;BME280;5317;49.048;8.468;2022-08-19T05:12:20;112049.66;;;-142.21;95.39
10539;BME280;5317;49.048;8.468;2022-08-19T05:14:47;112049.66;;;-142.21;94.16
10539;BME280;5317;49.048;8.468;2022-08-19T05:17:15;112049.66;;;-142.21;92.32
10539;BME280;5317;49.048;8.468;2022-08-19T05:19:42;112049.66;;;-142.21;91.76
10539;BME280;5317;49.048;8.468;2022-08-19T05:22:27;112049.66;;;-142.21;91.09
10539;BME280;5317;49.048;8.468;2022-08-19T05:25:06;112049.66;;;-142.21;91.10
10539;BME280;5317;49.048;8.468;2022-08-19T05:27:34;112049.66;;;-142.21;91.75
10539;BME280;5317;49.048;8.468;2022-08-19T05:30:02;112049.66;;;-142.21;90.14
10539;BME280;5317;49.048;8.468;2022-08-19T05:32:29;112049.66;;;-142.21;90.01
10539;BME280;5317;49.048;8.468;2022-08-19T05:35:00;112049.66;;;-142.21;89.41
10539;BME280;5317;49.048;8.468;2022-08-19T05:37:28;112049.66;;;-142.21;89.07
10539;BME280;5317;49.048;8.468;2022-08-19T05:39:55;112049.66;;;-142.21;89.15
10539;BME280;5317;49.048;8.468;2022-08-19T05:42:24;112049.66;;;-142.21;88.15
10539;BME280;5317;49.048;8.468;2022-08-19T05:44:52;112049.66;;;-142.21;88.23
10539;BME280;5317;49.048;8.468;2022-08-19T05:47:19;112049.66;;;-142.21;87.00
10539;BME280;5317;49.048;8.468;2022-08-19T05:49:47;112049.66;;;-142.21;87.22
10539;BME280;5317;49.048;8.468;2022-08-19T05:52:17;112049.66;;;-142.21;86.29
10539;BME280;5317;49.048;8.468;2022-08-19T05:54:45;112049.66;;;-142.21;86.14
10539;BME280;5317;49.048;8.468;2022-08-19T05:57:14;112049.66;;;-142.21;85.65
10539;BME280;5317;49.048;8.468;2022-08-19T05:59:43;112049.66;;;-142.21;85.44
10539;BME280;5317;49.048;8.468;2022-08-19T06:02:20;112049.66;;;-142.21;85.86
10539;BME280;5317;49.048;8.468;2022-08-19T06:04:48;112049.66;;;-142.21;85.61
10539;BME280;5317;49.048;8.468;2022-08-19T06:07:15;112049.66;;;-142.21;85.71
10539;BME280;5317;49.048;8.468;2022-08-19T06:09:42;112049.66;;;-142.21;85.34
10539;BME280;5317;49.048;8.468;2022-08-19T06:12:09;112049.66;;;-142.21;85.25
10539;BME280;5317;49.048;8.468;2022-08-19T06:14:37;112049.66;;;-142.21;84.97
10539;BME280;5317;49.048;8.468;2022-08-19T06:17:06;112049.66;;;-142.21;85.28
10539;BME280;5317;49.048;8.468;2022-08-19T06:19:33;112049.66;;;-142.21;85.13
10539;BME280;5317;49.048;8.468;2022-08-19T06:22:00;112049.66;;;-142.21;84.65
10539;BME280;5317;49.048;8.468;2022-08-19T06:24:29;112049.66;;;-142.21;84.91
10539;BME280;5317;49.048;8.468;2022-08-19T06:26:59;112049.66;;;-142.21;85.04
10539;BME280;5317;49.048;8.468;2022-08-19T06:29:28;112049.66;;;-142.21;84.90
10539;BME280;5317;49.048;8.468;2022-08-19T06:31:59;112049.66;;;-142.21;85.38
10539;BME280;5317;49.048;8.468;2022-08-19T06:34:30;112049.66;;;-142.21;85.57
10539;BME280;5317;49.048;8.468;2022-08-19T06:37:00;112049.66;;;-142.21;85.63
10539;BME280;5317;49.048;8.468;2022-08-19T06:39:31;112049.66;;;-142.21;85.56
10539;BME280;5317;49.048;8.468;2022-08-19T06:42:02;112049.66;;;-142.21;84.90
10539;BME280;5317;49.048;8.468;2022-08-19T06:44:39;112049.66;;;-142.21;84.91
10539;BME280;5317;49.048;8.468;2022-08-19T06:47:10;112049.66;;;-142.21;83.66
10539;BME280;5317;49.048;8.468;2022-08-19T06:49:38;112049.66;;;-142.21;83.26
10539;BME280;5317;49.048;8.468;2022-08-19T06:52:06;112049.66;;;-142.21;82.70
10539;BME280;5317;49.048;8.468;2022-08-19T06:54:33;112049.66;;;-142.21;82.86
10539;BME280;5317;49.048;8.468;2022-08-19T06:57:01;112049.66;;;-142.21;81.08
10539;BME280;5317;49.048;8.468;2022-08-19T06:59:30;112049.66;;;-142.21;79.05
10539;BME280;5317;49.048;8.468;2022-08-19T07:02:03;112049.66;;;-142.21;79.37
10539;BME280;5317;49.048;8.468;2022-08-19T07:04:34;112049.66;;;-142.21;77.87
10539;BME280;5317;49.048;8.468;2022-08-19T07:07:08;112049.66;;;-142.21;78.62
10539;BME280;5317;49.048;8.468;2022-08-19T07:09:43;112049.66;;;-142.21;77.39
10539;BME280;5317;49.048;8.468;2022-08-19T07:12:13;112049.66;;;-142.21;77.73
10539;BME280;5317;49.048;8.468;2022-08-19T07:14:42;112049.66;;;-142.21;74.95
10539;BME280;5317;49.048;8.468;2022-08-19T07:17:12;112049.66;;;-142.21;75.32
10539;BME280;5317;49.048;8.468;2022-08-19T07:19:41;112049.66;;;-142.21;74.35
10539;BME280;5317;49.048;8.468;2022-08-19T07:22:10;112049.66;;;-142.21;75.25
10539;BME280;5317;49.048;8.468;2022-08-19T07:24:38;112049.66;;;-142.21;74.91
10539;BME280;5317;49.048;8.468;2022-08-19T07:27:06;112049.66;;;-142.21;76.19
10539;BME280;5317;49.048;8.468;2022-08-19T07:29:36;112049.66;;;-142.21;75.03
10539;BME280;5317;49.048;8.468;2022-08-19T07:32:05;112049.66;;;-142.21;74.88
10539;BME280;5317;49.048;8.468;2022-08-19T07:34:33;112049.66;;;-142.21;72.85
10539;BME280;5317;49.048;8.468;2022-08-19T07:37:04;112049.66;;;-142.21;74.70
10539;BME280;5317;49.048;8.468;2022-08-19T07:39:35;112049.66;;;-142.21;75.04
10539;BME280;5317;49.048;8.468;2022-08-19T07:42:08;112049.66;;;-142.21;73.77
10539;BME280;5317;49.048;8.468;2022-08-19T07:44:37;112049.66;;;-142.21;72.38
10539;BME280;5317;49.048;8.468;2022-08-19T07:47:04;112049.66;;;-142.21;72.91
10539;BME280;5317;49.048;8.468;2022-08-19T07:49:34;112049.66;;;-142.21;71.91
10539;BME280;5317;49.048;8.468;2022-08-19T07:52:06;112049.66;;;-142.21;71.89
10539;BME280;5317;49.048;8.468;2022-08-19T07:54:38;112049.66;;;-142.21;73.51
10539;BME280;5317;49.048;8.468;2022-08-19T07:57:07;112049.66;;;-142.21;72.63
10539;BME280;5317;49.048;8.468;2022-08-19T07:59:34;112049.66;;;-142.21;73.93
10539;BME280;5317;49.048;8.468;2022-08-19T08:02:03;112049.66;;;-142.21;73.13
10539;BME280;5317;49.048;8.468;2022-08-19T08:04:31;112049.66;;;-142.21;72.57
10539;BME280;5317;49.048;8.468;2022-08-19T08:07:16;112049.66;;;-142.21;72.49
10539;BME280;5317;49.048;8.468;2022-08-19T08:10:04;112049.66;;;-142.21;73.34
10539;BME280;5317;49.048;8.468;2022-08-19T08:12:37;112049.66;;;-142.21;73.23
10539;BME280;5317;49.048;8.468;2022-08-19T08:15:13;112049.66;;;-142.21;72.74
10539;BME280;5317;49.048;8.468;2022-08-19T08:17:43;112049.66;;;-142.21;74.15
10539;BME280;5317;49.048;8.468;2022-08-19T08:20:11;112049.66;;;-142.21;74.95
10539;BME280;5317;49.048;8.468;2022-08-19T08:22:44;112049.66;;;-142.21;73.58
10539;BME280;5317;49.048;8.468;2022-08-19T08:25:31;112049.66;;;-142.21;73.00
10539;BME280;5317;49.048;8.468;2022-08-19T08:27:58;112049.66;;;-142.21;72.59
10539;BME280;5317;49.048;8.468;2022-08-19T08:30:28;112049.66;;;-142.21;71.90
10539;BME280;5317;49.048;8.468;2022-08-19T08:32:55;112049.66;;;-142.21;71.58
10539;BME280;5317;49.048;8.468;2022-08-19T08:35:24;112049.66;;;-142.21;70.30
10539;BME280;5317;49.048;8.468;2022-08-19T08:37:54;112049.66;;;-142.21;70.37
10539;BME280;5317;49.048;8.468;2022-08-19T08:40:28;112049.66;;;-142.21;69.53
10539;BME280;5317;49.048;8.468;2022-08-19T08:43:03;112049.66;;;-142.21;68.80
10539;BME280;5317;49.048;8.468;2022-08-19T08:45:38;112049.66;;;-142.21;68.34
10539;BME280;5317;49.048;8.468;2022-08-19T08:48:18;112049.66;;;-142.21;67.09
10539;BME280;5317;49.048;8.468;2022-08-19T08:50:54;112049.66;;;-142.21;66.51
10539;BME280;5317;49.048;8.468;2022-08-19T08:53:23;112049.66;;;-142.21;65.25
10539;BME280;5317;49.048;8.468;2022-08-19T08:55:53;112049.66;;;-142.21;66.09
10539;BME280;5317;49.048;8.468;2022-08-19T08:58:31;112049.66;;;-142.21;63.65
10539;BME280;5317;49.048;8.468;2022-08-19T09:01:10;112049.66;;;-142.21;63.04
10539;BME280;5317;49.048;8.468;2022-08-19T09:03:39;112049.66;;;-142.21;62.58
10539;BME280;5317;49.048;8.468;2022-08-19T09:06:14;112049.66;;;-142.21;62.05
10539;BME280;5317;49.048;8.468;2022-08-19T09:08:55;112049.66;;;-142.21;61.29
10539;BME280;5317;49.048;8.468;2022-08-19T09:11:47;112049.66;;;-142.21;62.20
10539;BME280;5317;49.048;8.468;2022-08-19T09:14:34;112049.66;;;-142.21;61.96
10539;BME280;5317;49.048;8.468;2022-08-19T09:17:03;112049.66;;;-142.21;60.58
10539;BME280;5317;49.048;8.468;2022-08-19T09:19:35;112049.66;;;-142.21;60.60
10539;BME280;5317;49.048;8.468;2022-08-19T09:22:02;112049.66;;;-142.21;61.52
10539;BME280;5317;49.048;8.468;2022-08-19T09:24:31;112049.66;;;-142.21;60.61
10539;BME280;5317;49.048;8.468;2022-08-19T09:26:58;112049.66;;;-142.21;60.13
10539;BME280;5317;49.048;8.468;2022-08-19T09:29:27;112049.66;;;-142.21;60.40
10539;BME280;5317;49.048;8.468;2022-08-19T09:31:56;112049.66;;;-142.21;59.74
10539;BME280;5317;49.048;8.468;2022-08-19T09:34:23;112049.66;;;-142.21;58.22
10539;BME280;5317;49.048;8.468;2022-08-19T09:36:50;112049.66;;;-142.21;58.95
10539;BME280;5317;49.048;8.468;2022-08-19T09:39:19;112049.66;;;-142.21;57.80
10539;BME280;5317;49.048;8.468;2022-08-19T09:41:46;112049.66;;;-142.21;58.16
10539;BME280;5317;49.048;8.468;2022-08-19T09:44:16;112049.66;;;-142.21;54.34
10539;BME280;5317;49.048;8.468;2022-08-19T09:46:44;112049.66;;;-142.21;55.72
10539;BME280;5317;49.048;8.468;2022-08-19T09:49:12;112049.66;;;-142.21;56.27
10539;BME280;5317;49.048;8.468;2022-08-19T09:51:40;112049.66;;;-142.21;55.62
10539;BME280;5317;49.048;8.468;2022-08-19T09:54:07;112049.66;;;-142.21;55.20
10539;BME280;5317;49.048;8.468;2022-08-19T09:56:34;112049.66;;;-142.21;54.08
10539;BME280;5317;49.048;8.468;2022-08-19T09:59:03;112049.66;;;-142.21;54.20
10539;BME280;5317;49.048;8.468;2022-08-19T10:01:32;112049.66;;;-142.21;54.02
10539;BME280;5317;49.048;8.468;2022-08-19T10:04:02;112049.66;;;-142.21;53.63
10539;BME280;5317;49.048;8.468;2022-08-19T10:06:30;112049.66;;;-142.21;53.28
10539;BME280;5317;49.048;8.468;2022-08-19T10:09:01;112049.66;;;-142.21;54.05
10539;BME280;5317;49.048;8.468;2022-08-19T10:11:30;112049.66;;;-142.21;49.75
10539;BME280;5317;49.048;8.468;2022-08-19T10:13:57;112049.66;;;-142.21;52.11
10539;BME280;5317;49.048;8.468;2022-08-19T10:16:25;112049.66;;;-142.21;48.40
10539;BME280;5317;49.048;8.468;2022-08-19T10:18:55;112049.66;;;-142.21;48.31
10539;BME280;5317;49.048;8.468;2022-08-19T10:21:28;112049.66;;;-142.21;48.38
10539;BME280;5317;49.048;8.468;2022-08-19T10:23:59;112049.66;;;-142.21;48.19
10539;BME280;5317;49.048;8.468;2022-08-19T10:26:35;112049.66;;;-142.21;44.78
10539;BME280;5317;49.048;8.468;2022-08-19T10:29:04;112049.66;;;-142.21;45.74
10539;BME280;5317;49.048;8.468;2022-08-19T10:31:33;112049.66;;;-142.21;44.47
10539;BME280;5317;49.048;8.468;2022-08-19T10:34:01;112049.66;;;-142.21;45.01
10539;BME280;5317;49.048;8.468;2022-08-19T10:36:32;112049.66;;;-142.21;44.87
10539;BME280;5317;49.048;8.468;2022-08-19T10:39:04;112049.66;;;-142.21;44.62
10539;BME280;5317;49.048;8.468;2022-08-19T10:41:36;112049.66;;;-142.21;44.28
10539;BME280;5317;49.048;8.468;2022-08-19T10:44:11;112049.66;;;-142.21;44.33
10539;BME280;5317;49.048;8.468;2022-08-19T10:46:42;112049.66;;;-142.21;44.33
10539;BME280;5317;49.048;8.468;2022-08-19T10:49:13;112049.66;;;-142.21;45.27
10539;BME280;5317;49.048;8.468;2022-08-19T10:51:42;112049.66;;;-142.21;44.16
10539;BME280;5317;49.048;8.468;2022-08-19T10:54:27;112049.66;;;-142.21;43.63
10539;BME280;5317;49.048;8.468;2022-08-19T10:57:08;112049.66;;;-142.21;42.51
10539;BME280;5317;49.048;8.468;2022-08-19T10:59:36;112049.66;;;-142.21;43.00
10539;BME280;5317;49.048;8.468;2022-08-19T11:02:08;112049.66;;;-142.21;42.35
10539;BME280;5317;49.048;8.468;2022-08-19T11:04:36;112049.66;;;-142.21;42.49
10539;BME280;5317;49.048;8.468;2022-08-19T11:07:05;112049.66;;;-142.21;40.91
10539;BME280;5317;49.048;8.468;2022-08-19T11:09:40;112049.66;;;-142.21;40.71
10539;BME280;5317;49.048;8.468;2022-08-19T11:12:10;112049.66;;;-142.21;39.73
10539;BME280;5317;49.048;8.468;2022-08-19T11:14:38;112049.66;;;-142.21;40.16
10539;BME280;5317;49.048;8.468;2022-08-19T11:17:06;112049.66;;;-142.21;39.67
10539;BME280;5317;49.048;8.468;2022-08-19T11:19:34;112049.66;;;-142.21;39.39
10539;BME280;5317;49.048;8.468;2022-08-19T11:22:03;112049.66;;;-142.21;39.78
10539;BME280;5317;49.048;8.468;2022-08-19T11:24:31;112049.66;;;-142.21;39.60
10539;BME280;5317;49.048;8.468;2022-08-19T11:27:07;112049.66;;;-142.21;39.56
10539;BME280;5317;49.048;8.468;2022-08-19T11:29:37;112049.66;;;-142.21;39.55
10539;BME280;5317;49.048;8.468;2022-08-19T11:32:08;112049.66;;;-142.21;39.05
10539;BME280;5317;49.048;8.468;2022-08-19T11:34:36;112049.66;;;-142.21;38.86
10539;BME280;5317;49.048;8.468;2022-08-19T11:37:06;112049.66;;;-142.21;38.66
10539;BME280;5317;49.048;8.468;2022-08-19T11:39:36;112049.66;;;-142.21;38.16
10539;BME280;5317;49.048;8.468;2022-08-19T11:42:05;112049.66;;;-142.21;37.81
10539;BME280;5317;49.048;8.468;2022-08-19T11:44:54;112049.66;;;-142.21;38.66
10539;BME280;5317;49.048;8.468;2022-08-19T11:47:21;112049.66;;;-142.21;38.44
10539;BME280;5317;49.048;8.468;2022-08-19T11:49:49;112049.66;;;-142.21;38.59
10539;BME280;5317;49.048;8.468;2022-08-19T11:52:18;112049.66;;;-142.21;38.58
10539;BME280;5317;49.048;8.468;2022-08-19T11:54:46;112049.66;;;-142.21;39.08
10539;BME280;5317;49.048;8.468;2022-08-19T11:57:13;112049.66;;;-142.21;38.71
10539;BME280;5317;49.048;8.468;2022-08-19T11:59:48;112049.66;;;-142.21;39.16
10539;BME280;5317;49.048;8.468;2022-08-19T12:02:15;112049.66;;;-142.21;39.00
10539;BME280;5317;49.048;8.468;2022-08-19T12:04:42;112049.66;;;-142.21;38.96
10539;BME280;5317;49.048;8.468;2022-08-19T12:07:11;112049.66;;;-142.21;38.90
10539;BME280;5317;49.048;8.468;2022-08-19T12:09:39;112049.66;;;-142.21;38.69
10539;BME280;5317;49.048;8.468;2022-08-19T12:12:07;112049.66;;;-142.21;38.83
10539;BME280;5317;49.048;8.468;2022-08-19T12:14:35;112049.66;;;-142.21;39.04
10539;BME280;5317;49.048;8.468;2022-08-19T12:17:02;112049.66;;;-142.21;38.85
10539;BME280;5317;49.048;8.468;2022-08-19T12:19:33;112049.66;;;-142.21;37.61
10539;BME280;5317;49.048;8.468;2022-08-19T12:22:01;112049.66;;;-142.21;36.73
10539;BME280;5317;49.048;8.468;2022-08-19T12:24:31;112049.66;;;-142.21;37.55
10539;BME280;5317;49.048;8.468;2022-08-19T12:27:00;112049.66;;;-142.21;37.27
10539;BME280;5317;49.048;8.468;2022-08-19T12:29:28;112049.66;;;-142.21;38.09
10539;BME280;5317;49.048;8.468;2022-08-19T12:31:57;112049.66;;;-142.21;37.29
10539;BME280;5317;49.048;8.468;2022-08-19T12:34:29;112049.66;;;-142.21;38.59
10539;BME280;5317;49.048;8.468;2022-08-19T12:36:57;112049.66;;;-142.21;39.20
10539;BME280;5317;49.048;8.468;2022-08-19T12:39:25;112049.66;;;-142.21;39.45
10539;BME280;5317;49.048;8.468;2022-08-19T12:41:52;112049.66;;;-142.21;37.44
10539;BME280;5317;49.048;8.468;2022-08-19T12:44:22;112049.66;;;-142.21;37.29
10539;BME280;5317;49.048;8.468;2022-08-19T12:46:49;112049.66;;;-142.21;38.50
10539;BME280;5317;49.048;8.468;2022-08-19T12:49:16;112049.66;;;-142.21;38.69
10539;BME280;5317;49.048;8.468;2022-08-19T12:51:43;112049.66;;;-142.21;38.40
10539;BME280;5317;49.048;8.468;2022-08-19T12:54:11;112049.66;;;-142.21;38.57
10539;BME280;5317;49.048;8.468;2022-08-19T12:56:40;112049.66;;;-142.21;37.21
10539;BME280;5317;49.048;8.468;2022-08-19T12:59:08;112049.66;;;-142.21;38.08